Terminal Aerodrome Forecast
Issued by NWS

Home | Current Version | Previous Version | Text Only | Print | Product List | Glossary On
Versions: 1 2 3 4 5 6 7 8 9 10 11 12
000
FTAK31 PAJN 231100
TAFAGY
TAF
PAGY 231139Z 2312/2412 00000KT P6SM BKN150
     FM232000 21008KT P6SM FEW050 SCT150
     FM240600 21004KT P6SM FEW050
      AMD LTD TO CLD VIS AND WIND=

USA.gov is the U.S. government's official web portal to all federal, state and local government web resources and services.